Time;durP1;ratioP1;P1;durP2;ratioP2;P2;SDS_P1;SDS_P2;PMS_P1;PMS_P2;Temp;Humidity;BMP_temperature;BMP_pressure;BME280_temperature;BME280_humidity;BME280_pressure;Samples;Min_cycle;Max_cycle;Signal;HPM_P1;HPM_P2
2023/01/29 00:00:16;;;;;;;296.33;71.72;;;;;;;;;;5080355;28;20256;-73
2023/01/29 00:02:45;;;;;;;302.55;73.47;;;;;;;;;;5080784;28;20217;-74
2023/01/29 00:05:24;;;;;;;278.48;67.20;;;;;;;;;;5099778;28;20217;-73
2023/01/29 00:07:58;;;;;;;286.40;71.03;;;;;;;;;;5099746;28;20202;-74
2023/01/29 00:10:27;;;;;;;281.30;68.43;;;;;;;;;;5099845;28;20198;-74
2023/01/29 00:12:54;;;;;;;289.05;70.47;;;;;;;;;;5099563;28;20231;-74
2023/01/29 00:15:23;;;;;;;283.77;69.15;;;;;;;;;;5099461;28;20498;-74
2023/01/29 00:17:52;;;;;;;292.70;74.20;;;;;;;;;;5099683;28;20237;-74
2023/01/29 00:20:28;;;;;;;281.38;68.97;;;;;;;;;;5096833;28;20247;-74
2023/01/29 00:23:10;;;;;;;292.25;72.63;;;;;;;;;;5099614;28;20205;-73
2023/01/29 00:25:41;;;;;;;280.70;67.55;;;;;;;;;;5099847;28;20205;-72
2023/01/29 00:28:19;;;;;;;288.67;70.13;;;;;;;;;;5098926;28;20202;-73
2023/01/29 00:30:50;;;;;;;286.98;70.38;;;;;;;;;;5100105;28;20205;-73
2023/01/29 00:33:20;;;;;;;275.42;68.90;;;;;;;;;;5100077;28;20205;-73
2023/01/29 00:38:32;;;;;;;282.02;66.10;;;;;;;;;;5070420;28;20684;-74
2023/01/29 00:46:49;;;;;;;279.70;68.57;;;;;;;;;;5092717;28;20242;-74
2023/01/29 00:49:19;;;;;;;285.60;69.45;;;;;;;;;;5099022;28;20296;-74
2023/01/29 00:52:22;;;;;;;295.60;72.68;;;;;;;;;;5081057;28;20210;-74
2023/01/29 00:54:39;;;;;;;303.60;72.53;;;;;;;;;;5080386;28;20335;-74
2023/01/29 00:57:08;;;;;;;285.20;68.53;;;;;;;;;;5078498;28;20344;-73
2023/01/29 00:59:36;;;;;;;292.33;70.43;;;;;;;;;;5089845;28;20707;-74
2023/01/29 01:04:56;;;;;;;280.55;67.32;;;;;;;;;;5085634;28;20249;-72
2023/01/29 01:07:24;;;;;;;280.35;68.50;;;;;;;;;;5078481;28;20232;-75
2023/01/29 01:12:42;;;;;;;289.40;73.57;;;;;;;;;;5080720;28;20192;-72
2023/01/29 01:15:12;;;;;;;302.48;74.70;;;;;;;;;;5078479;28;20206;-72
2023/01/29 01:17:47;;;;;;;291.73;73.15;;;;;;;;;;5080230;28;20552;-74
2023/01/29 01:20:36;;;;;;;287.45;69.80;;;;;;;;;;5077862;28;20208;-74
2023/01/29 01:23:09;;;;;;;286.55;70.30;;;;;;;;;;5077977;28;20213;-74
2023/01/29 01:25:39;;;;;;;300.48;73.78;;;;;;;;;;5093609;28;20201;-74
2023/01/29 01:28:06;;;;;;;304.55;72.70;;;;;;;;;;5097904;28;20205;-74
2023/01/29 01:30:34;;;;;;;278.88;68.43;;;;;;;;;;5097911;28;20209;-74
2023/01/29 01:33:03;;;;;;;292.50;70.88;;;;;;;;;;5097343;28;20609;-74
2023/01/29 01:35:33;;;;;;;275.63;65.03;;;;;;;;;;5082038;28;20208;-74
2023/01/29 01:38:01;;;;;;;285.20;69.03;;;;;;;;;;5077411;28;20293;-74
2023/01/29 01:40:37;;;;;;;295.98;73.70;;;;;;;;;;5084295;28;20198;-72
2023/01/29 01:43:21;;;;;;;;;;;;;;;;;;;;;
2023/01/29 01:45:52;;;;;;;282.05;67.53;;;;;;;;;;5096783;28;20215;-74
2023/01/29 01:48:32;;;;;;;285.25;70.80;;;;;;;;;;5097543;28;20202;-74
2023/01/29 01:51:02;;;;;;;289.35;70.55;;;;;;;;;;5094204;28;20578;-75
2023/01/29 01:53:33;;;;;;;277.88;65.32;;;;;;;;;;5091649;28;20527;-74
2023/01/29 01:56:16;;;;;;;281.33;67.35;;;;;;;;;;5091215;28;20722;-72
2023/01/29 01:58:52;;;;;;;280.65;68.47;;;;;;;;;;5077216;28;20230;-74
2023/01/29 02:01:26;;;;;;;283.83;70.80;;;;;;;;;;5095653;28;20306;-73
2023/01/29 02:09:39;;;;;;;283.67;67.55;;;;;;;;;;5091655;28;20201;-73
2023/01/29 02:12:17;;;;;;;275.60;65.65;;;;;;;;;;5093934;28;20186;-73
2023/01/29 02:14:45;;;;;;;286.52;69.50;;;;;;;;;;5076987;28;20256;-75
2023/01/29 02:17:25;;;;;;;273.65;69.30;;;;;;;;;;5076722;28;20293;-73
2023/01/29 02:20:16;;;;;;;286.67;71.20;;;;;;;;;;5076823;28;20226;-74
2023/01/29 02:22:52;;;;;;;282.48;70.38;;;;;;;;;;5077325;28;20259;-74
2023/01/29 02:25:40;;;;;;;286.33;68.72;;;;;;;;;;5076971;28;20252;-73
2023/01/29 02:28:13;;;;;;;273.35;68.80;;;;;;;;;;5091705;28;20225;-74
2023/01/29 02:30:49;;;;;;;275.30;67.07;;;;;;;;;;5096544;28;20205;-73
2023/01/29 02:33:24;;;;;;;294.58;71.72;;;;;;;;;;5085775;28;20206;-74
2023/01/29 02:35:58;;;;;;;276.73;68.90;;;;;;;;;;5083063;28;20235;-72
2023/01/29 02:38:35;;;;;;;283.35;68.03;;;;;;;;;;5077299;28;20221;-72
2023/01/29 02:41:20;;;;;;;272.95;65.88;;;;;;;;;;5090481;28;20209;-72
2023/01/29 02:43:55;;;;;;;281.58;70.00;;;;;;;;;;5084750;28;20251;-72
2023/01/29 02:46:33;;;;;;;281.88;68.13;;;;;;;;;;5097001;28;20240;-74
2023/01/29 02:49:02;;;;;;;276.45;65.65;;;;;;;;;;5096545;28;20462;-74
2023/01/29 02:51:35;;;;;;;272.63;68.78;;;;;;;;;;5097507;28;20480;-74
2023/01/29 02:54:15;;;;;;;288.75;74.40;;;;;;;;;;5096697;28;20216;-73
2023/01/29 02:56:48;;;;;;;282.27;75.80;;;;;;;;;;5089375;28;20217;-74
2023/01/29 02:59:19;;;;;;;277.15;67.28;;;;;;;;;;5076988;28;20709;-74
2023/01/29 03:01:55;;;;;;;278.65;68.07;;;;;;;;;;5076731;28;20207;-74
2023/01/29 03:04:26;;;;;;;276.70;70.88;;;;;;;;;;5075374;28;20210;-73
2023/01/29 03:06:56;;;;;;;276.90;72.93;;;;;;;;;;5077668;28;20263;-74
2023/01/29 03:09:27;;;;;;;277.38;67.80;;;;;;;;;;5074258;28;20267;-73
2023/01/29 03:12:00;;;;;;;270.50;68.78;;;;;;;;;;5057520;28;20234;-74
2023/01/29 03:15:10;;;;;;;287.00;70.68;;;;;;;;;;5058128;28;20590;-73
2023/01/29 03:17:35;;;;;;;294.05;71.88;;;;;;;;;;5075516;28;20194;-72
2023/01/29 03:20:06;;;;;;;280.15;69.90;;;;;;;;;;5080159;28;20238;-74
2023/01/29 03:22:40;;;;;;;267.33;65.00;;;;;;;;;;5067128;28;20584;-74
2023/01/29 03:33:33;;;;;;;282.65;69.30;;;;;;;;;;5079107;28;20240;-73
2023/01/29 03:36:06;;;;;;;288.48;70.18;;;;;;;;;;5079919;28;20245;-73
2023/01/29 03:38:34;;;;;;;282.83;69.85;;;;;;;;;;5080276;28;20230;-74
2023/01/29 03:41:07;;;;;;;274.95;67.60;;;;;;;;;;5080068;28;20234;-73
2023/01/29 03:43:46;;;;;;;275.05;68.13;;;;;;;;;;5080205;28;20589;-73
2023/01/29 03:46:23;;;;;;;267.77;66.88;;;;;;;;;;5079455;28;20244;-73
2023/01/29 03:48:55;;;;;;;277.52;66.82;;;;;;;;;;5079793;28;20206;-74
2023/01/29 03:51:25;;;;;;;275.88;67.68;;;;;;;;;;5073709;28;20214;-73
2023/01/29 03:53:57;;;;;;;273.73;65.18;;;;;;;;;;5079109;28;20221;-72
2023/01/29 03:56:39;;;;;;;269.23;66.35;;;;;;;;;;5079272;28;20482;-73
2023/01/29 03:59:14;;;;;;;274.30;66.63;;;;;;;;;;5079846;28;20230;-73
2023/01/29 04:01:49;;;;;;;276.52;67.45;;;;;;;;;;5080226;28;20216;-73
2023/01/29 04:04:22;;;;;;;275.15;70.85;;;;;;;;;;5098494;28;20213;-73
2023/01/29 04:06:57;;;;;;;270.48;67.53;;;;;;;;;;5099665;28;20285;-73
2023/01/29 04:09:30;;;;;;;273.13;65.68;;;;;;;;;;5100168;28;20280;-73
2023/01/29 04:12:07;;;;;;;276.02;68.63;;;;;;;;;;5099946;28;20213;-73
2023/01/29 04:14:39;;;;;;;287.50;70.93;;;;;;;;;;5100387;28;20209;-73
2023/01/29 04:17:13;;;;;;;284.65;69.05;;;;;;;;;;5100593;28;20557;-73
2023/01/29 04:19:44;;;;;;;286.05;69.45;;;;;;;;;;5099707;28;20271;-73
2023/01/29 04:22:15;;;;;;;283.20;67.65;;;;;;;;;;5100665;28;20213;-73
2023/01/29 04:24:46;;;;;;;287.35;70.88;;;;;;;;;;5099645;28;20598;-73
2023/01/29 04:27:30;;;;;;;276.00;68.32;;;;;;;;;;5098037;28;20287;-73
2023/01/29 04:30:08;;;;;;;272.05;66.80;;;;;;;;;;5097357;28;20205;-73
2023/01/29 04:33:01;;;;;;;279.75;69.95;;;;;;;;;;5079470;28;20259;-73
2023/01/29 04:35:32;;;;;;;276.20;66.90;;;;;;;;;;5079704;28;20213;-73
2023/01/29 04:38:07;;;;;;;277.20;71.47;;;;;;;;;;5079350;28;20217;-73
2023/01/29 04:40:44;;;;;;;285.88;70.78;;;;;;;;;;5079555;28;20256;-74
2023/01/29 04:43:16;;;;;;;279.25;68.20;;;;;;;;;;5079338;28;20198;-72
2023/01/29 04:45:52;;;;;;;278.35;66.15;;;;;;;;;;5078444;28;20233;-73
2023/01/29 04:48:23;;;;;;;274.13;68.25;;;;;;;;;;5078920;28;20221;-73
2023/01/29 04:50:54;;;;;;;280.73;69.75;;;;;;;;;;5079100;28;20720;-73
2023/01/29 04:53:36;;;;;;;274.15;68.38;;;;;;;;;;5078874;28;20505;-73
2023/01/29 04:56:08;;;;;;;277.65;68.57;;;;;;;;;;5079064;28;20708;-73
2023/01/29 04:58:38;;;;;;;288.83;71.20;;;;;;;;;;5079144;28;20277;-73
2023/01/29 05:01:08;;;;;;;279.13;68.47;;;;;;;;;;5078096;28;20211;-73
2023/01/29 05:03:41;;;;;;;286.52;71.50;;;;;;;;;;5078455;28;20498;-73
2023/01/29 05:06:10;;;;;;;285.83;70.00;;;;;;;;;;5079351;28;20657;-73
2023/01/29 05:08:38;;;;;;;279.50;66.90;;;;;;;;;;5078408;28;20217;-73
2023/01/29 05:11:10;;;;;;;285.58;68.75;;;;;;;;;;5078965;28;20668;-72
2023/01/29 05:13:40;;;;;;;283.90;71.45;;;;;;;;;;5078205;28;20206;-73
2023/01/29 05:16:10;;;;;;;275.75;67.53;;;;;;;;;;5078519;28;20210;-72
2023/01/29 05:18:39;;;;;;;281.02;72.57;;;;;;;;;;5077916;28;20483;-73
2023/01/29 05:21:11;;;;;;;273.17;66.10;;;;;;;;;;5078576;28;20317;-73
2023/01/29 05:23:58;;;;;;;282.70;70.25;;;;;;;;;;5078571;28;20210;-73
2023/01/29 05:29:11;;;;;;;290.85;71.38;;;;;;;;;;5090484;28;20242;-73
2023/01/29 05:31:44;;;;;;;288.85;72.32;;;;;;;;;;5097860;28;20466;-73
2023/01/29 05:34:16;;;;;;;286.33;73.57;;;;;;;;;;5098501;28;20241;-73
2023/01/29 05:36:45;;;;;;;286.70;72.07;;;;;;;;;;5098495;28;20602;-73
2023/01/29 05:39:14;;;;;;;272.45;65.28;;;;;;;;;;5098027;28;20763;-72
2023/01/29 05:41:44;;;;;;;270.23;66.78;;;;;;;;;;5098843;28;20628;-72
2023/01/29 05:44:12;;;;;;;301.67;72.97;;;;;;;;;;5098004;28;20643;-73
2023/01/29 05:46:40;;;;;;;292.42;70.75;;;;;;;;;;5098637;28;20213;-74
2023/01/29 05:49:08;;;;;;;279.52;69.97;;;;;;;;;;5097940;28;20267;-73
2023/01/29 05:51:37;;;;;;;275.00;66.18;;;;;;;;;;5097761;28;20212;-74
2023/01/29 05:54:06;;;;;;;292.17;70.90;;;;;;;;;;5098323;28;20503;-73
2023/01/29 05:56:35;;;;;;;285.88;72.38;;;;;;;;;;5097272;28;20210;-74
2023/01/29 05:59:04;;;;;;;279.70;68.70;;;;;;;;;;5096579;28;20232;-73
2023/01/29 06:01:33;;;;;;;286.90;72.95;;;;;;;;;;5089039;28;20210;-73
2023/01/29 06:04:06;;;;;;;287.80;71.15;;;;;;;;;;5078086;28;20216;-74
2023/01/29 06:06:34;;;;;;;289.27;69.93;;;;;;;;;;5078207;28;20483;-73
2023/01/29 06:09:06;;;;;;;273.15;68.13;;;;;;;;;;5077747;28;20206;-74
2023/01/29 06:11:38;;;;;;;287.15;71.55;;;;;;;;;;5077800;28;20217;-74
2023/01/29 06:14:08;;;;;;;277.98;68.55;;;;;;;;;;5077971;28;20605;-73
2023/01/29 06:16:40;;;;;;;287.98;70.65;;;;;;;;;;5076919;28;20214;-73
2023/01/29 06:19:08;;;;;;;285.13;68.90;;;;;;;;;;5077443;28;20240;-73
2023/01/29 06:21:40;;;;;;;286.15;70.57;;;;;;;;;;5080593;28;20209;-72
2023/01/29 06:24:18;;;;;;;284.92;70.00;;;;;;;;;;5076987;28;20633;-73
2023/01/29 06:26:46;;;;;;;284.02;69.32;;;;;;;;;;5077994;28;20217;-73
2023/01/29 06:29:18;;;;;;;295.50;75.03;;;;;;;;;;5077803;28;20217;-74
2023/01/29 06:31:46;;;;;;;289.13;72.80;;;;;;;;;;5092897;28;20232;-74
2023/01/29 06:34:13;;;;;;;278.85;65.70;;;;;;;;;;5097856;28;20214;-73
2023/01/29 06:36:41;;;;;;;292.55;75.03;;;;;;;;;;5097886;28;20232;-73
2023/01/29 06:39:11;;;;;;;293.25;71.22;;;;;;;;;;5097893;28;20236;-73
2023/01/29 06:41:44;;;;;;;286.10;71.38;;;;;;;;;;5097315;28;20213;-72
2023/01/29 06:44:12;;;;;;;272.23;67.32;;;;;;;;;;5095926;28;20202;-74
2023/01/29 06:46:42;;;;;;;270.27;64.50;;;;;;;;;;5096217;28;20206;-73
2023/01/29 06:49:10;;;;;;;276.65;66.88;;;;;;;;;;5097200;28;20206;-73
2023/01/29 06:51:42;;;;;;;291.27;74.20;;;;;;;;;;5100980;28;20216;-73
2023/01/29 06:54:11;;;;;;;283.52;69.82;;;;;;;;;;5100123;28;20237;-74
2023/01/29 06:56:39;;;;;;;289.15;72.03;;;;;;;;;;5101398;28;20209;-73
2023/01/29 06:59:07;;;;;;;283.00;69.10;;;;;;;;;;5099834;28;20296;-74
2023/01/29 07:01:35;;;;;;;269.08;66.43;;;;;;;;;;5081942;28;20317;-73
2023/01/29 07:04:03;;;;;;;280.38;68.65;;;;;;;;;;5081365;28;20280;-73
2023/01/29 07:06:31;;;;;;;285.13;70.22;;;;;;;;;;5081103;28;20214;-74
2023/01/29 07:08:58;;;;;;;288.17;71.65;;;;;;;;;;5080399;28;20279;-73
2023/01/29 07:11:27;;;;;;;280.25;67.50;;;;;;;;;;5080553;28;20202;-74
2023/01/29 07:13:55;;;;;;;284.35;70.72;;;;;;;;;;5081211;28;20237;-73
2023/01/29 07:16:24;;;;;;;280.65;68.97;;;;;;;;;;5081553;28;20205;-74
2023/01/29 07:18:51;;;;;;;277.67;68.95;;;;;;;;;;5080678;28;20207;-74
2023/01/29 07:21:19;;;;;;;275.90;67.20;;;;;;;;;;5082144;28;20226;-73
2023/01/29 07:23:47;;;;;;;272.27;65.25;;;;;;;;;;5082001;28;20198;-74
2023/01/29 07:26:15;;;;;;;278.65;69.75;;;;;;;;;;5092453;28;20457;-74
2023/01/29 07:28:44;;;;;;;274.27;66.70;;;;;;;;;;5100505;28;20218;-73
2023/01/29 07:31:12;;;;;;;277.33;68.03;;;;;;;;;;5100656;28;20206;-74
2023/01/29 07:33:40;;;;;;;295.52;74.07;;;;;;;;;;5100403;28;20205;-73
2023/01/29 07:36:09;;;;;;;290.40;70.93;;;;;;;;;;5100760;28;20209;-74
2023/01/29 07:38:36;;;;;;;285.13;69.28;;;;;;;;;;5101034;28;20216;-74
2023/01/29 07:41:04;;;;;;;282.77;67.57;;;;;;;;;;5101292;28;20229;-74
2023/01/29 07:43:32;;;;;;;289.92;70.65;;;;;;;;;;5099906;28;20197;-74
2023/01/29 07:46:03;;;;;;;306.13;69.82;;;;;;;;;;5094525;28;20213;-74
2023/01/29 07:48:31;;;;;;;288.70;69.88;;;;;;;;;;5079850;28;20214;-74
2023/01/29 07:50:59;;;;;;;284.63;70.93;;;;;;;;;;5079326;28;20202;-74
2023/01/29 07:53:27;;;;;;;287.00;69.97;;;;;;;;;;5080227;28;20639;-74
2023/01/29 07:55:55;;;;;;;283.92;69.13;;;;;;;;;;5079536;28;20213;-74
2023/01/29 07:58:23;;;;;;;287.63;68.68;;;;;;;;;;5079539;28;20249;-74
2023/01/29 08:00:50;;;;;;;291.58;70.57;;;;;;;;;;5080210;28;20232;-74
2023/01/29 08:03:20;;;;;;;286.40;70.13;;;;;;;;;;5083373;28;20205;-74
2023/01/29 08:05:48;;;;;;;280.85;69.82;;;;;;;;;;5079233;28;20202;-74
2023/01/29 08:08:16;;;;;;;278.23;67.70;;;;;;;;;;5080008;28;20206;-74
2023/01/29 08:10:44;;;;;;;287.65;73.82;;;;;;;;;;5080073;28;20722;-74
2023/01/29 08:13:12;;;;;;;278.95;68.88;;;;;;;;;;5080002;28;20221;-74
2023/01/29 08:15:39;;;;;;;284.88;72.00;;;;;;;;;;5080605;28;20198;-74
2023/01/29 08:18:08;;;;;;;289.23;71.97;;;;;;;;;;5079908;28;20233;-74
2023/01/29 08:20:37;;;;;;;284.48;70.50;;;;;;;;;;5095497;28;20230;-74
2023/01/29 08:23:06;;;;;;;287.38;70.80;;;;;;;;;;5083411;28;20206;-74
2023/01/29 08:25:35;;;;;;;310.13;77.43;;;;;;;;;;5079828;28;20225;-74
2023/01/29 08:28:02;;;;;;;285.35;72.35;;;;;;;;;;5079081;28;20214;-74
2023/01/29 08:30:32;;;;;;;282.30;70.47;;;;;;;;;;5079379;28;20202;-74
2023/01/29 08:33:03;;;;;;;279.13;66.95;;;;;;;;;;5078345;28;20210;-74
2023/01/29 08:35:31;;;;;;;286.42;70.60;;;;;;;;;;5095256;28;20475;-74
2023/01/29 08:38:00;;;;;;;284.20;69.10;;;;;;;;;;5099762;28;20239;-74
2023/01/29 08:40:30;;;;;;;286.10;71.93;;;;;;;;;;5096718;28;20231;-74
2023/01/29 08:42:58;;;;;;;288.85;71.30;;;;;;;;;;5098459;28;20210;-74
2023/01/29 08:45:26;;;;;;;276.20;68.57;;;;;;;;;;5093261;28;20194;-74
2023/01/29 08:47:57;;;;;;;304.23;71.82;;;;;;;;;;5096665;28;20267;-74
2023/01/29 08:50:25;;;;;;;306.73;74.53;;;;;;;;;;5098910;28;20589;-74
2023/01/29 08:52:58;;;;;;;285.98;70.18;;;;;;;;;;5098226;28;20233;-75
2023/01/29 08:55:28;;;;;;;279.58;70.82;;;;;;;;;;5096952;28;20210;-74
2023/01/29 08:57:57;;;;;;;281.60;68.47;;;;;;;;;;5097270;28;20214;-74
2023/01/29 09:00:25;;;;;;;290.50;73.03;;;;;;;;;;5097227;28;20225;-74
2023/01/29 09:02:53;;;;;;;297.17;75.93;;;;;;;;;;5077709;28;20605;-74
2023/01/29 09:05:22;;;;;;;286.45;71.53;;;;;;;;;;5079178;28;20206;-75
2023/01/29 09:07:50;;;;;;;295.05;72.90;;;;;;;;;;5087515;28;20288;-74
2023/01/29 09:10:18;;;;;;;280.27;69.97;;;;;;;;;;5098386;28;20205;-75
2023/01/29 09:12:52;;;;;;;292.83;74.53;;;;;;;;;;5082965;28;20614;-74
2023/01/29 09:15:23;;;;;;;288.00;73.07;;;;;;;;;;5077692;28;20257;-74
2023/01/29 09:17:51;;;;;;;296.60;75.60;;;;;;;;;;5079181;28;20572;-74
2023/01/29 09:20:19;;;;;;;301.55;74.97;;;;;;;;;;5078210;28;20226;-74
2023/01/29 09:22:48;;;;;;;309.55;77.72;;;;;;;;;;5078450;28;20206;-74
2023/01/29 09:25:16;;;;;;;296.63;73.75;;;;;;;;;;5077789;28;20256;-74
2023/01/29 09:27:48;;;;;;;286.63;74.53;;;;;;;;;;5077056;28;20237;-74
2023/01/29 09:30:16;;;;;;;307.42;76.13;;;;;;;;;;5077870;28;20236;-74
2023/01/29 09:32:45;;;;;;;297.30;71.65;;;;;;;;;;5079734;28;20229;-74
2023/01/29 09:35:13;;;;;;;298.40;71.82;;;;;;;;;;5096047;28;20202;-74
2023/01/29 09:37:51;;;;;;;299.30;79.13;;;;;;;;;;5094257;28;20194;-74
2023/01/29 09:40:26;;;;;;;295.58;75.20;;;;;;;;;;5077670;28;20210;-73
2023/01/29 09:42:58;;;;;;;299.13;76.93;;;;;;;;;;5077978;28;20198;-76
2023/01/29 09:45:28;;;;;;;296.75;74.22;;;;;;;;;;5079432;28;20207;-74
2023/01/29 09:47:58;;;;;;;304.48;78.47;;;;;;;;;;5088857;28;20255;-74
2023/01/29 09:50:35;;;;;;;302.48;78.63;;;;;;;;;;5087594;28;20389;-74
2023/01/29 09:53:09;;;;;;;311.67;78.82;;;;;;;;;;5077108;28;20206;-74
2023/01/29 09:55:40;;;;;;;301.00;73.38;;;;;;;;;;5087228;28;20204;-74
2023/01/29 09:58:19;;;;;;;303.33;77.07;;;;;;;;;;5099903;28;20271;-73
2023/01/29 10:00:58;;;;;;;319.13;84.65;;;;;;;;;;5097545;28;20296;-72
2023/01/29 10:03:41;;;;;;;288.73;75.70;;;;;;;;;;5099752;28;20213;-75
2023/01/29 10:06:27;;;;;;;295.00;76.15;;;;;;;;;;5096837;28;20215;-74
2023/01/29 10:09:11;;;;;;;290.83;74.13;;;;;;;;;;5099132;28;20213;-72
2023/01/29 10:11:44;;;;;;;294.77;72.63;;;;;;;;;;5097110;28;20220;-74
2023/01/29 10:14:18;;;;;;;296.48;75.88;;;;;;;;;;5096681;28;20205;-75
2023/01/29 10:17:00;;;;;;;300.02;77.32;;;;;;;;;;5087824;28;20770;-74
2023/01/29 10:19:44;;;;;;;282.33;74.18;;;;;;;;;;5089392;28;20202;-73
2023/01/29 10:25:06;;;;;;;297.70;75.63;;;;;;;;;;5072147;28;20206;-74
2023/01/29 10:27:44;;;;;;;292.58;78.70;;;;;;;;;;5079384;28;20202;-72
2023/01/29 10:30:39;;;;;;;301.25;78.93;;;;;;;;;;5087092;28;20309;-73
2023/01/29 10:33:13;;;;;;;315.90;84.28;;;;;;;;;;5085021;28;20202;-73
2023/01/29 10:35:48;;;;;;;296.58;75.15;;;;;;;;;;5087669;28;20197;-74
2023/01/29 10:38:32;;;;;;;295.60;74.22;;;;;;;;;;5096065;28;20201;-74
2023/01/29 10:41:10;;;;;;;290.33;71.95;;;;;;;;;;5094634;28;20632;-74
2023/01/29 10:44:02;;;;;;;294.35;76.45;;;;;;;;;;5075456;28;20511;-74
2023/01/29 10:46:58;;;;;;;294.42;76.32;;;;;;;;;;5077760;28;20453;-74
2023/01/29 10:49:39;;;;;;;304.33;84.32;;;;;;;;;;5014748;28;20267;-75
2023/01/29 10:52:19;;;;;;;292.00;75.75;;;;;;;;;;5056759;28;20206;-74
2023/01/29 10:54:59;;;;;;;300.00;77.47;;;;;;;;;;5086884;28;20545;-75
2023/01/29 10:57:40;;;;;;;308.52;76.80;;;;;;;;;;5090348;28;20213;-75
2023/01/29 11:00:22;;;;;;;328.27;83.15;;;;;;;;;;5081751;28;20291;-75
2023/01/29 11:02:54;;;;;;;309.42;82.63;;;;;;;;;;5076722;28;20265;-75
2023/01/29 11:05:30;;;;;;;300.02;76.35;;;;;;;;;;5076707;28;20210;-75
2023/01/29 11:08:17;;;;;;;291.85;71.82;;;;;;;;;;5076795;28;20197;-74
2023/01/29 11:10:50;;;;;;;288.42;73.60;;;;;;;;;;5076583;28;20201;-75
2023/01/29 11:13:19;;;;;;;297.45;75.05;;;;;;;;;;5079155;28;20297;-74
2023/01/29 11:15:48;;;;;;;299.40;78.63;;;;;;;;;;5095955;28;20205;-74
2023/01/29 11:18:16;;;;;;;291.77;74.53;;;;;;;;;;5093964;28;20216;-74
2023/01/29 11:21:00;;;;;;;307.13;78.20;;;;;;;;;;5089145;28;20590;-75
2023/01/29 11:23:38;;;;;;;298.98;79.10;;;;;;;;;;5092290;28;20270;-74
2023/01/29 11:26:08;;;;;;;298.58;73.10;;;;;;;;;;5082795;28;20198;-74
2023/01/29 11:28:37;;;;;;;296.42;76.78;;;;;;;;;;5078624;28;20195;-73
2023/01/29 11:31:16;;;;;;;297.05;77.10;;;;;;;;;;5092542;28;20198;-74
2023/01/29 11:33:47;;;;;;;296.27;75.05;;;;;;;;;;5085048;28;20191;-74
2023/01/29 11:36:37;;;;;;;294.98;75.90;;;;;;;;;;5091017;28;20236;-74
2023/01/29 11:39:20;;;;;;;297.45;74.78;;;;;;;;;;5079995;28;20280;-74
2023/01/29 11:41:49;;;;;;;289.00;76.82;;;;;;;;;;5088504;28;20772;-74
2023/01/29 11:44:28;;;;;;;308.60;83.53;;;;;;;;;;5085735;28;20205;-74
2023/01/29 11:46:57;;;;;;;308.52;78.18;;;;;;;;;;5098335;28;20209;-74
2023/01/29 11:49:31;;;;;;;298.67;79.65;;;;;;;;;;5099853;28;20205;-74
2023/01/29 11:52:00;;;;;;;292.70;71.68;;;;;;;;;;5078710;28;20209;-75
2023/01/29 11:57:40;;;;;;;297.02;73.05;;;;;;;;;;5078570;28;20246;-74
2023/01/29 12:00:22;;;;;;;282.08;71.63;;;;;;;;;;5093665;28;20502;-74
2023/01/29 12:03:01;;;;;;;311.17;74.53;;;;;;;;;;5098052;28;20308;-73
2023/01/29 12:06:00;;;;;;;297.02;75.22;;;;;;;;;;5096092;28;20198;-74
2023/01/29 12:08:33;;;;;;;296.52;72.15;;;;;;;;;;5078547;28;20206;-74
2023/01/29 12:11:09;;;;;;;301.80;78.20;;;;;;;;;;5095561;28;20279;-74
2023/01/29 12:13:43;;;;;;;290.00;72.50;;;;;;;;;;5099710;28;20237;-74
2023/01/29 12:16:21;;;;;;;290.73;70.72;;;;;;;;;;5098443;28;20297;-74
2023/01/29 12:18:52;;;;;;;286.48;69.53;;;;;;;;;;5092501;28;20205;-74
2023/01/29 12:21:23;;;;;;;295.50;72.63;;;;;;;;;;5095320;28;20229;-74
2023/01/29 12:23:56;;;;;;;303.95;79.00;;;;;;;;;;5078274;28;20580;-74
2023/01/29 12:26:33;;;;;;;305.70;76.55;;;;;;;;;;5079976;28;20214;-74
2023/01/29 12:29:16;;;;;;;286.90;71.93;;;;;;;;;;5093166;28;20217;-74
2023/01/29 12:31:50;;;;;;;295.60;75.57;;;;;;;;;;5099340;28;20596;-75
2023/01/29 12:34:25;;;;;;;293.48;74.15;;;;;;;;;;5096046;28;20263;-74
2023/01/29 12:36:55;;;;;;;302.13;77.95;;;;;;;;;;5077801;28;20225;-74
2023/01/29 12:39:23;;;;;;;301.17;77.00;;;;;;;;;;5086618;28;20666;-74
2023/01/29 12:42:08;;;;;;;303.95;73.20;;;;;;;;;;5097892;28;20236;-74
2023/01/29 12:44:53;;;;;;;294.33;75.95;;;;;;;;;;5084629;28;20215;-73
2023/01/29 12:47:31;;;;;;;296.17;74.72;;;;;;;;;;5099590;28;20201;-74
2023/01/29 12:50:04;;;;;;;302.08;74.00;;;;;;;;;;5098247;28;20270;-71
2023/01/29 12:52:48;;;;;;;291.63;72.60;;;;;;;;;;5093162;28;20708;-74
2023/01/29 12:55:19;;;;;;;291.98;73.95;;;;;;;;;;5078131;28;20309;-74
2023/01/29 12:57:48;;;;;;;294.77;73.50;;;;;;;;;;5076408;28;20253;-74
2023/01/29 13:00:24;;;;;;;298.75;76.22;;;;;;;;;;5080237;28;20293;-75
2023/01/29 13:02:58;;;;;;;299.25;75.68;;;;;;;;;;5078467;28;20234;-74
2023/01/29 13:05:32;;;;;;;289.98;72.63;;;;;;;;;;5081451;28;20249;-74
2023/01/29 13:08:09;;;;;;;309.50;77.22;;;;;;;;;;5092057;28;20193;-72
2023/01/29 13:10:41;;;;;;;305.73;75.57;;;;;;;;;;5097985;28;20266;-74
2023/01/29 13:13:19;;;;;;;302.83;75.38;;;;;;;;;;5087365;28;20195;-75
2023/01/29 13:15:49;;;;;;;297.60;70.60;;;;;;;;;;5076674;28;20209;-74
2023/01/29 13:18:41;;;;;;;303.63;76.38;;;;;;;;;;5088184;28;20294;-73
2023/01/29 13:21:14;;;;;;;294.33;81.53;;;;;;;;;;5077590;28;20259;-73
2023/01/29 13:23:45;;;;;;;293.38;74.50;;;;;;;;;;5097642;28;20194;-74
2023/01/29 13:26:14;;;;;;;286.95;72.30;;;;;;;;;;5096333;28;20271;-75
2023/01/29 13:28:46;;;;;;;293.25;73.90;;;;;;;;;;5096021;28;20201;-73
2023/01/29 13:31:24;;;;;;;291.63;73.65;;;;;;;;;;5096647;28;20209;-74
2023/01/29 13:33:57;;;;;;;292.98;73.75;;;;;;;;;;5090416;28;20194;-72
2023/01/29 13:36:31;;;;;;;290.02;72.10;;;;;;;;;;5097060;28;20193;-74
2023/01/29 13:39:04;;;;;;;305.33;77.25;;;;;;;;;;5097254;28;20204;-74
2023/01/29 13:41:37;;;;;;;310.30;76.78;;;;;;;;;;5096801;28;20209;-74
2023/01/29 13:44:12;;;;;;;316.08;81.72;;;;;;;;;;5086761;28;20249;-75
2023/01/29 13:46:45;;;;;;;309.13;78.20;;;;;;;;;;5076072;28;20236;-73
2023/01/29 13:49:28;;;;;;;305.52;72.60;;;;;;;;;;5076746;28;20253;-74
2023/01/29 13:52:00;;;;;;;314.33;77.38;;;;;;;;;;5093905;28;20205;-75
2023/01/29 13:54:31;;;;;;;309.42;75.40;;;;;;;;;;5097401;28;20249;-75
2023/01/29 13:57:01;;;;;;;298.92;76.50;;;;;;;;;;5096646;28;20202;-73
2023/01/29 13:59:47;;;;;;;302.73;78.00;;;;;;;;;;5096737;28;20606;-74
2023/01/29 14:02:29;;;;;;;288.55;71.32;;;;;;;;;;5095318;28;20293;-73
2023/01/29 14:05:12;;;;;;;286.60;69.30;;;;;;;;;;5096503;28;20565;-74
2023/01/29 14:07:50;;;;;;;288.60;72.97;;;;;;;;;;5083726;28;20539;-75
2023/01/29 14:10:19;;;;;;;298.15;76.68;;;;;;;;;;5096369;28;20209;-74
2023/01/29 14:12:50;;;;;;;295.45;74.55;;;;;;;;;;5097173;28;20275;-75
2023/01/29 14:15:23;;;;;;;302.35;77.00;;;;;;;;;;5095478;28;20201;-74
2023/01/29 14:18:04;;;;;;;295.25;74.85;;;;;;;;;;5095850;28;20209;-75
2023/01/29 14:20:34;;;;;;;295.80;72.25;;;;;;;;;;5095639;28;20561;-75
2023/01/29 14:23:04;;;;;;;300.25;75.00;;;;;;;;;;5094229;28;20321;-75
2023/01/29 14:25:39;;;;;;;291.52;73.10;;;;;;;;;;5096574;28;20279;-74
2023/01/29 14:28:21;;;;;;;307.65;75.75;;;;;;;;;;5092143;28;20270;-75
2023/01/29 14:30:49;;;;;;;302.05;73.45;;;;;;;;;;5095919;28;20228;-74
2023/01/29 14:33:24;;;;;;;288.15;70.82;;;;;;;;;;5096210;28;20766;-75
2023/01/29 14:35:57;;;;;;;286.90;71.68;;;;;;;;;;5095564;28;20292;-74
2023/01/29 14:38:27;;;;;;;290.65;72.20;;;;;;;;;;5076830;28;20206;-75
2023/01/29 14:41:04;;;;;;;299.95;76.35;;;;;;;;;;5076501;28;20225;-74
2023/01/29 14:43:32;;;;;;;289.08;72.32;;;;;;;;;;5076589;28;20254;-75
2023/01/29 14:46:15;;;;;;;295.10;74.18;;;;;;;;;;5091601;28;20238;-75
2023/01/29 14:48:52;;;;;;;293.40;73.00;;;;;;;;;;5087810;28;20553;-75
2023/01/29 14:51:29;;;;;;;286.77;70.30;;;;;;;;;;5087142;28;20219;-74
2023/01/29 14:54:07;;;;;;;291.30;71.93;;;;;;;;;;5077238;28;20689;-74
2023/01/29 14:56:36;;;;;;;281.70;69.05;;;;;;;;;;5091745;28;20590;-73
2023/01/29 14:59:16;;;;;;;289.77;73.82;;;;;;;;;;5087749;28;20202;-74
2023/01/29 15:01:48;;;;;;;300.95;77.03;;;;;;;;;;5089751;28;20198;-75
2023/01/29 15:04:20;;;;;;;299.67;74.72;;;;;;;;;;5082356;28;20212;-74
2023/01/29 15:06:53;;;;;;;307.75;77.75;;;;;;;;;;5078198;28;20218;-73
2023/01/29 15:09:32;;;;;;;297.85;81.18;;;;;;;;;;5076110;28;20217;-74
2023/01/29 15:12:04;;;;;;;298.52;78.20;;;;;;;;;;5081183;28;20206;-73
2023/01/29 15:14:33;;;;;;;291.70;71.00;;;;;;;;;;5079679;28;20206;-74
2023/01/29 15:17:18;;;;;;;292.58;75.78;;;;;;;;;;5083810;28;20214;-74